Time;durP1;ratioP1;P1;durP2;ratioP2;P2;SDS_P1;SDS_P2;PMS_P1;PMS_P2;Temp;Humidity;BMP_temperature;BMP_pressure;BME280_temperature;BME280_humidity;BME280_pressure;Samples;Min_cycle;Max_cycle;Signal;HPM_P1;HPM_P2
2022/03/13 00:00:36;;;;;;;10.15;5.50;;;19.70;56.80;;;;;;5018314;28;20014;-60
2022/03/13 00:03:06;;;;;;;9.43;5.20;;;19.70;56.80;;;;;;5020792;28;20172;-59
2022/03/13 00:05:36;;;;;;;9.05;5.13;;;19.60;56.90;;;;;;5040146;28;20334;-59
2022/03/13 00:08:04;;;;;;;9.82;4.97;;;19.60;56.90;;;;;;5034650;28;20029;-59
2022/03/13 00:10:30;;;;;;;9.57;5.00;;;19.60;56.90;;;;;;5025694;28;20168;-59
2022/03/13 00:12:56;;;;;;;11.23;5.38;;;19.60;56.90;;;;;;5027446;28;20144;-59
2022/03/13 00:15:25;;;;;;;10.25;5.28;;;19.60;57.10;;;;;;5028210;28;20465;-59
2022/03/13 00:17:51;;;;;;;8.43;4.85;;;19.60;57.10;;;;;;5027652;28;20051;-59
2022/03/13 00:20:19;;;;;;;8.88;4.85;;;19.60;57.10;;;;;;5027336;28;20556;-59
2022/03/13 00:22:45;;;;;;;8.82;4.90;;;19.50;57.10;;;;;;5030921;28;20497;-59
2022/03/13 00:25:10;;;;;;;10.10;5.15;;;19.50;57.10;;;;;;5027701;28;20033;-59
2022/03/13 00:27:36;;;;;;;8.70;4.80;;;19.50;57.10;;;;;;5027502;28;20140;-59
2022/03/13 00:30:05;;;;;;;8.55;4.68;;;19.50;57.10;;;;;;5032999;28;20037;-59
2022/03/13 00:32:31;;;;;;;9.20;4.75;;;19.50;57.20;;;;;;5026311;28;20206;-60
2022/03/13 00:34:58;;;;;;;8.73;4.57;;;19.40;57.10;;;;;;5028009;28;20033;-60
2022/03/13 00:37:25;;;;;;;8.77;4.43;;;19.40;57.10;;;;;;5028801;28;20029;-60
2022/03/13 00:39:51;;;;;;;8.18;4.70;;;19.40;57.30;;;;;;5019674;28;20147;-60
2022/03/13 00:42:17;;;;;;;10.13;4.50;;;19.40;57.30;;;;;;5019089;28;20069;-60
2022/03/13 00:44:42;;;;;;;9.38;4.70;;;19.40;57.30;;;;;;5017925;28;20386;-60
2022/03/13 00:47:08;;;;;;;10.20;4.53;;;19.40;57.30;;;;;;5013571;28;20075;-60
2022/03/13 00:49:34;;;;;;;7.72;4.03;;;19.40;57.30;;;;;;5031445;28;20022;-60
2022/03/13 00:52:00;;;;;;;9.50;4.53;;;19.30;57.30;;;;;;5020632;28;20033;-60
2022/03/13 00:54:26;;;;;;;8.88;4.35;;;19.30;58.40;;;;;;5018859;28;20030;-60
2022/03/13 00:56:53;;;;;;;8.23;4.25;;;19.30;57.30;;;;;;5021245;28;20032;-60
2022/03/13 00:59:20;;;;;;;8.93;4.50;;;19.30;57.40;;;;;;5014872;28;20079;-60
2022/03/13 01:01:46;;;;;;;7.38;4.30;;;19.30;57.40;;;;;;5015429;28;20483;-59
2022/03/13 01:04:12;;;;;;;8.82;4.50;;;19.30;57.40;;;;;;5027528;28;20052;-60
2022/03/13 01:06:38;;;;;;;8.57;4.25;;;19.20;57.40;;;;;;5023229;28;20414;-60
2022/03/13 01:09:03;;;;;;;8.65;4.40;;;19.20;57.40;;;;;;5018749;28;20100;-60
2022/03/13 01:11:29;;;;;;;7.88;4.30;;;19.20;57.40;;;;;;5015939;28;20022;-60
2022/03/13 01:13:55;;;;;;;8.52;4.40;;;19.20;57.40;;;;;;5019751;28;20108;-61
2022/03/13 01:16:25;;;;;;;9.32;4.40;;;19.10;57.40;;;;;;5017852;28;20557;-59
2022/03/13 01:18:52;;;;;;;7.80;3.95;;;19.10;57.50;;;;;;5018549;28;20475;-60
2022/03/13 01:21:18;;;;;;;9.30;4.22;;;19.10;57.50;;;;;;5021331;28;20083;-60
2022/03/13 01:24:03;;;;;;;9.10;4.35;;;19.10;57.60;;;;;;5029518;28;20426;-60
2022/03/13 01:26:37;;;;;;;7.03;3.70;;;19.10;57.50;;;;;;5029399;28;20045;-60
2022/03/13 01:29:13;;;;;;;8.95;4.20;;;19.10;57.60;;;;;;5016518;28;20780;-60
2022/03/13 01:31:46;;;;;;;9.10;4.05;;;19.10;57.60;;;;;;5015060;28;20065;-60
2022/03/13 01:34:25;;;;;;;9.25;4.22;;;19.00;57.60;;;;;;5016747;28;20030;-60
2022/03/13 01:36:50;;;;;;;8.05;4.00;;;19.00;57.70;;;;;;5016987;28;20038;-60
2022/03/13 01:39:16;;;;;;;9.65;3.92;;;19.00;57.60;;;;;;5020845;28;20037;-60
2022/03/13 01:41:41;;;;;;;8.82;4.15;;;19.00;57.70;;;;;;5029198;28;20598;-60
2022/03/13 01:44:07;;;;;;;9.10;3.70;;;19.00;57.70;;;;;;5011823;28;20801;-60
2022/03/13 01:46:33;;;;;;;8.50;4.00;;;18.90;57.50;;;;;;5015999;28;20884;-60
2022/03/13 01:49:03;;;;;;;8.00;3.90;;;18.90;57.70;;;;;;5017824;28;20423;-60
2022/03/13 01:51:30;;;;;;;7.57;3.70;;;18.90;57.70;;;;;;5017891;28;20033;-60
2022/03/13 01:53:57;;;;;;;6.57;3.40;;;18.90;57.60;;;;;;5017748;28;20032;-60
2022/03/13 01:56:23;;;;;;;7.80;3.65;;;18.90;57.60;;;;;;5017040;28;20029;-60
2022/03/13 01:58:50;;;;;;;6.72;3.50;;;18.80;57.70;;;;;;5013788;28;20072;-60
2022/03/13 02:01:17;;;;;;;8.02;3.83;;;18.80;57.60;;;;;;5019040;28;20112;-60
2022/03/13 02:03:43;;;;;;;9.10;3.95;;;18.80;57.60;;;;;;5021629;28;20022;-60
2022/03/13 02:06:09;;;;;;;9.05;3.58;;;18.80;57.70;;;;;;5017525;28;20044;-60
2022/03/13 02:08:37;;;;;;;8.63;3.58;;;18.80;57.70;;;;;;5015339;28;20095;-61
2022/03/13 02:11:03;;;;;;;8.32;3.85;;;18.80;57.60;;;;;;5012871;28;20032;-60
2022/03/13 02:13:28;;;;;;;7.07;3.55;;;18.70;57.60;;;;;;5029021;28;20029;-60
2022/03/13 02:15:55;;;;;;;9.60;4.00;;;18.70;57.60;;;;;;5019816;28;20363;-60
2022/03/13 02:18:21;;;;;;;7.93;3.80;;;18.70;57.70;;;;;;5017509;28;20483;-60
2022/03/13 02:20:46;;;;;;;7.30;3.45;;;18.70;57.70;;;;;;5025695;28;20022;-60
2022/03/13 02:23:25;;;;;;;7.30;3.50;;;18.70;57.60;;;;;;5012921;28;20028;-60
2022/03/13 02:25:52;;;;;;;8.25;3.63;;;18.70;57.70;;;;;;5025734;28;20029;-60
2022/03/13 02:28:19;;;;;;;7.70;3.35;;;18.70;57.70;;;;;;5025985;28;20026;-60
2022/03/13 02:30:45;;;;;;;8.23;3.70;;;18.70;57.60;;;;;;5020777;28;20065;-60
2022/03/13 02:33:11;;;;;;;6.70;3.30;;;18.60;57.50;;;;;;5017185;28;20068;-60
2022/03/13 02:35:37;;;;;;;7.90;3.50;;;18.60;57.50;;;;;;5015277;28;20064;-59
2022/03/13 02:38:03;;;;;;;9.23;3.65;;;18.60;57.60;;;;;;5027282;28;20461;-60
2022/03/13 02:40:28;;;;;;;8.40;3.42;;;18.60;57.50;;;;;;5016004;28;20042;-60
2022/03/13 02:42:58;;;;;;;7.80;3.30;;;18.60;57.50;;;;;;5016390;28;20022;-59
2022/03/13 02:45:31;;;;;;;9.52;3.55;;;18.60;57.60;;;;;;5020470;28;20391;-60
2022/03/13 02:47:58;;;;;;;8.95;3.60;;;18.50;57.50;;;;;;5015803;28;20046;-60
2022/03/13 02:50:24;;;;;;;8.00;3.40;;;18.50;57.50;;;;;;5013615;28;20029;-60
2022/03/13 02:52:50;;;;;;;7.80;3.47;;;18.50;57.50;;;;;;5012995;28;20030;-60
2022/03/13 02:55:15;;;;;;;7.82;3.40;;;18.50;57.50;;;;;;5027040;28;20087;-61
2022/03/13 02:57:41;;;;;;;7.00;3.22;;;18.50;57.50;;;;;;5020784;28;20391;-60
2022/03/13 03:00:08;;;;;;;9.35;3.30;;;18.50;57.50;;;;;;5016959;28;20029;-60
2022/03/13 03:02:37;;;;;;;7.97;3.58;;;18.40;57.50;;;;;;5027271;28;20052;-60
2022/03/13 03:05:06;;;;;;;7.93;3.45;;;18.50;57.50;;;;;;5012419;28;20025;-60
2022/03/13 03:07:32;;;;;;;7.85;3.42;;;18.40;57.50;;;;;;5013862;28;20073;-60
2022/03/13 03:09:58;;;;;;;8.55;3.13;;;18.40;57.40;;;;;;5016429;28;20562;-60
2022/03/13 03:12:23;;;;;;;9.05;3.38;;;18.40;57.40;;;;;;5016458;28;20883;-60
2022/03/13 03:14:49;;;;;;;8.48;3.35;;;18.40;57.40;;;;;;5016853;28;20116;-60
2022/03/13 03:17:15;;;;;;;7.95;3.30;;;18.40;57.50;;;;;;5023135;28;20038;-61
2022/03/13 03:19:40;;;;;;;8.55;3.25;;;18.30;57.30;;;;;;5014297;28;20032;-60
2022/03/13 03:22:06;;;;;;;8.27;3.45;;;18.30;57.30;;;;;;5016510;28;20034;-60
2022/03/13 03:24:32;;;;;;;7.03;2.97;;;18.30;57.30;;;;;;5016785;28;20530;-60
2022/03/13 03:26:58;;;;;;;8.45;3.13;;;18.30;57.30;;;;;;5016108;28;20417;-60
2022/03/13 03:29:25;;;;;;;9.38;3.10;;;18.30;57.20;;;;;;5021738;28;20033;-59
2022/03/13 03:31:51;;;;;;;6.80;2.85;;;18.30;57.20;;;;;;5012248;28;20038;-60
2022/03/13 03:34:18;;;;;;;6.57;2.90;;;18.30;57.10;;;;;;5027910;28;20028;-60
2022/03/13 03:36:46;;;;;;;7.38;3.20;;;18.20;57.00;;;;;;5020515;28;20029;-60
2022/03/13 03:39:12;;;;;;;6.47;2.90;;;18.20;57.10;;;;;;5016781;28;20072;-60
2022/03/13 03:41:39;;;;;;;9.18;3.15;;;18.20;57.00;;;;;;5013237;28;20057;-60
2022/03/13 03:44:05;;;;;;;6.53;2.85;;;18.20;56.90;;;;;;5016922;28;20037;-60
2022/03/13 03:46:30;;;;;;;8.25;2.92;;;18.20;56.90;;;;;;5015271;28;20042;-60
2022/03/13 03:48:56;;;;;;;7.13;3.00;;;18.20;57.00;;;;;;5016820;28;20033;-60
2022/03/13 03:51:22;;;;;;;8.20;3.20;;;18.20;56.90;;;;;;5023191;28;20033;-60
2022/03/13 03:53:47;;;;;;;8.25;3.20;;;18.20;56.90;;;;;;5016203;28;20025;-59
2022/03/13 03:56:13;;;;;;;6.63;2.67;;;18.10;56.80;;;;;;5013250;28;20028;-60
2022/03/13 03:58:38;;;;;;;8.10;2.90;;;18.10;56.90;;;;;;5017748;28;20030;-60
2022/03/13 04:01:04;;;;;;;9.13;3.25;;;18.10;56.90;;;;;;5021671;28;20064;-60
2022/03/13 04:03:30;;;;;;;8.13;3.30;;;18.10;56.90;;;;;;5025810;28;20068;-59
2022/03/13 04:05:55;;;;;;;6.70;2.83;;;18.10;56.90;;;;;;5019531;28;20037;-60
2022/03/13 04:08:21;;;;;;;7.93;2.78;;;18.10;57.00;;;;;;5015964;28;20039;-59
2022/03/13 04:10:47;;;;;;;6.93;2.92;;;18.00;56.90;;;;;;5016234;28;20025;-60
2022/03/13 04:13:12;;;;;;;6.32;2.80;;;18.00;56.90;;;;;;5019666;28;20046;-59
2022/03/13 04:15:38;;;;;;;7.93;2.80;;;18.00;56.90;;;;;;5019389;28;20058;-60
2022/03/13 04:18:04;;;;;;;8.80;2.85;;;18.00;56.90;;;;;;5019989;28;20032;-60
2022/03/13 04:20:29;;;;;;;7.72;3.03;;;18.00;57.00;;;;;;5030968;28;20021;-60
2022/03/13 04:22:55;;;;;;;8.15;2.80;;;18.00;57.00;;;;;;5030369;28;20394;-60
2022/03/13 04:25:21;;;;;;;8.88;3.05;;;18.00;57.10;;;;;;5019205;28;20521;-60
2022/03/13 04:27:47;;;;;;;7.78;2.83;;;18.00;58.00;;;;;;5019639;28;20540;-60
2022/03/13 04:30:13;;;;;;;7.90;2.90;;;17.90;57.00;;;;;;5019322;28;20498;-60
2022/03/13 04:32:41;;;;;;;7.88;2.92;;;17.90;57.10;;;;;;5017887;28;20032;-60
2022/03/13 04:35:07;;;;;;;6.78;2.60;;;17.90;57.00;;;;;;5025989;28;20033;-60
2022/03/13 04:37:33;;;;;;;7.13;2.58;;;17.90;57.10;;;;;;5021401;28;20487;-60
2022/03/13 04:39:58;;;;;;;7.88;2.85;;;17.90;57.20;;;;;;5020649;28;20034;-60
2022/03/13 04:42:24;;;;;;;8.25;2.65;;;17.90;57.10;;;;;;5019193;28;20041;-60
2022/03/13 04:44:50;;;;;;;7.00;2.67;;;17.90;57.10;;;;;;5019041;28;20030;-60
2022/03/13 04:47:15;;;;;;;6.88;2.70;;;17.80;57.10;;;;;;5014254;28;20041;-60
2022/03/13 04:49:41;;;;;;;6.95;2.63;;;17.90;57.20;;;;;;5016658;28;20391;-60
2022/03/13 04:52:07;;;;;;;6.78;2.53;;;17.80;57.10;;;;;;5018506;28;20037;-60
2022/03/13 04:54:33;;;;;;;7.85;2.83;;;17.80;57.10;;;;;;5018777;28;20034;-60
2022/03/13 04:56:58;;;;;;;8.57;2.70;;;17.80;58.20;;;;;;5018862;28;20021;-60
2022/03/13 04:59:24;;;;;;;6.13;2.70;;;17.80;57.20;;;;;;5015335;28;20052;-60
2022/03/13 05:01:52;;;;;;;6.88;2.53;;;17.80;57.20;;;;;;5027159;28;20075;-59
2022/03/13 05:04:17;;;;;;;6.72;2.35;;;17.80;57.20;;;;;;5027693;28;20513;-60
2022/03/13 05:06:45;;;;;;;8.27;2.75;;;17.80;57.20;;;;;;5034615;28;20083;-60
2022/03/13 05:09:10;;;;;;;8.07;2.70;;;17.70;57.10;;;;;;5035429;28;20025;-59
2022/03/13 05:11:38;;;;;;;6.85;2.47;;;17.80;57.20;;;;;;5029574;28;20631;-60
2022/03/13 05:14:04;;;;;;;7.00;2.47;;;17.80;57.10;;;;;;5013913;28;20076;-60
2022/03/13 05:16:30;;;;;;;7.63;2.40;;;17.70;57.10;;;;;;5017772;28;20030;-60
2022/03/13 05:18:55;;;;;;;8.43;2.72;;;17.70;57.20;;;;;;5021058;28;20452;-60
2022/03/13 05:21:21;;;;;;;7.20;2.47;;;17.70;57.10;;;;;;5028129;28;20040;-60
2022/03/13 05:23:47;;;;;;;7.07;2.50;;;17.70;57.10;;;;;;5031490;28;20026;-60
2022/03/13 05:26:12;;;;;;;6.80;2.30;;;17.70;57.00;;;;;;5013637;28;20110;-60
2022/03/13 05:28:38;;;;;;;6.40;2.35;;;17.70;57.20;;;;;;5032400;28;20060;-60
2022/03/13 05:31:05;;;;;;;6.65;2.47;;;17.70;57.10;;;;;;5019342;28;20447;-60
2022/03/13 05:33:31;;;;;;;6.15;2.30;;;17.60;57.10;;;;;;5018038;28;20109;-59
2022/03/13 05:35:58;;;;;;;6.65;2.30;;;17.60;56.90;;;;;;5017737;28;20109;-60
2022/03/13 05:38:24;;;;;;;7.78;2.78;;;17.60;57.10;;;;;;5036680;28;20034;-60
2022/03/13 05:40:50;;;;;;;6.05;2.17;;;17.60;57.20;;;;;;5013799;28;20052;-60
2022/03/13 05:43:15;;;;;;;6.45;2.47;;;17.60;57.20;;;;;;5041080;28;20029;-60
2022/03/13 05:45:41;;;;;;;5.78;2.42;;;17.60;57.30;;;;;;5026638;28;20402;-60
2022/03/13 05:48:09;;;;;;;5.45;2.28;;;17.60;57.20;;;;;;5017856;28;20033;-60
2022/03/13 05:50:35;;;;;;;5.53;2.30;;;17.60;57.20;;;;;;5031000;28;20092;-60
2022/03/13 05:53:01;;;;;;;7.45;2.38;;;17.60;57.30;;;;;;5027346;28;20033;-60
2022/03/13 05:55:27;;;;;;;6.53;2.40;;;17.50;57.20;;;;;;5018999;28;20022;-59
2022/03/13 05:57:56;;;;;;;7.28;2.45;;;17.50;57.40;;;;;;5024734;28;20029;-60
2022/03/13 06:00:22;;;;;;;4.63;2.00;;;17.50;57.30;;;;;;5023132;28;20546;-60
2022/03/13 06:02:48;;;;;;;7.28;2.30;;;17.50;57.60;;;;;;5023945;28;20033;-60
2022/03/13 06:05:17;;;;;;;7.03;2.10;;;17.50;57.50;;;;;;5050729;28;20025;-60
2022/03/13 06:07:43;;;;;;;6.57;2.22;;;17.50;57.50;;;;;;5026426;28;20494;-60
2022/03/13 06:10:09;;;;;;;5.50;2.03;;;17.50;57.60;;;;;;5025207;28;20503;-60
2022/03/13 06:12:35;;;;;;;6.95;2.17;;;17.50;57.70;;;;;;5024591;28;20036;-59
2022/03/13 06:15:02;;;;;;;7.03;2.20;;;17.50;57.80;;;;;;5025349;28;20033;-60
2022/03/13 06:17:27;;;;;;;6.50;2.10;;;17.50;57.50;;;;;;5026658;28;20304;-60
2022/03/13 06:19:54;;;;;;;5.30;2.10;;;17.40;57.80;;;;;;5018066;28;20477;-60
2022/03/13 06:22:19;;;;;;;5.80;2.03;;;17.40;57.60;;;;;;5023709;28;20589;-60
2022/03/13 06:24:45;;;;;;;6.72;2.25;;;17.40;57.90;;;;;;5022327;28;20104;-60
2022/03/13 06:27:11;;;;;;;5.60;2.10;;;17.40;57.90;;;;;;5019552;28;20117;-60
2022/03/13 06:29:38;;;;;;;8.43;2.30;;;17.40;57.80;;;;;;5020056;28;20100;-60
2022/03/13 06:32:04;;;;;;;6.40;2.20;;;17.40;57.50;;;;;;5020845;28;20159;-59
2022/03/13 06:34:30;;;;;;;5.50;2.00;;;17.40;57.50;;;;;;5021887;28;20026;-59
2022/03/13 06:36:55;;;;;;;5.18;2.10;;;17.40;57.80;;;;;;5012297;28;20044;-59
2022/03/13 06:39:22;;;;;;;5.70;2.20;;;17.40;57.80;;;;;;5022376;28;20053;-60
2022/03/13 06:41:48;;;;;;;7.43;2.20;;;17.30;58.70;;;;;;5022293;28;20081;-60
2022/03/13 06:44:13;;;;;;;7.32;2.15;;;17.30;57.90;;;;;;5019585;28;20056;-60
2022/03/13 06:46:39;;;;;;;4.88;2.10;;;17.30;57.90;;;;;;5018290;28;20670;-60
2022/03/13 06:49:05;;;;;;;6.47;2.40;;;17.30;57.70;;;;;;5026209;28;20087;-60
2022/03/13 06:51:32;;;;;;;7.00;2.10;;;17.30;57.70;;;;;;5027911;28;20033;-60
2022/03/13 06:53:58;;;;;;;6.15;2.25;;;17.30;57.70;;;;;;5033177;28;20021;-60
2022/03/13 06:56:24;;;;;;;5.88;2.15;;;17.30;57.70;;;;;;5037365;28;20088;-60
2022/03/13 06:58:49;;;;;;;7.55;2.00;;;17.30;57.60;;;;;;5012852;28;20022;-60
2022/03/13 07:01:15;;;;;;;5.05;1.92;;;17.30;57.70;;;;;;5035312;28;20037;-61
2022/03/13 07:03:42;;;;;;;6.10;2.13;;;17.20;57.80;;;;;;5035416;28;20024;-60
2022/03/13 07:06:07;;;;;;;4.68;1.80;;;17.20;58.50;;;;;;5026960;28;20073;-60
2022/03/13 07:08:33;;;;;;;5.07;1.80;;;17.20;57.80;;;;;;5014535;28;20068;-60
2022/03/13 07:11:02;;;;;;;5.95;1.95;;;17.20;57.50;;;;;;5012467;28;20114;-60
2022/03/13 07:13:32;;;;;;;5.93;2.03;;;17.20;57.40;;;;;;5024306;28;20113;-60
2022/03/13 07:16:01;;;;;;;4.93;2.05;;;17.20;57.60;;;;;;5018810;28;20044;-60
2022/03/13 07:18:27;;;;;;;5.70;1.92;;;17.20;57.40;;;;;;5016405;28;20030;-60
2022/03/13 07:20:53;;;;;;;5.90;2.17;;;17.20;57.50;;;;;;5016652;28;20036;-60
2022/03/13 07:23:19;;;;;;;4.40;1.90;;;17.20;57.80;;;;;;5012657;28;20026;-60
2022/03/13 07:25:44;;;;;;;4.68;1.60;;;17.20;57.90;;;;;;5022760;28;20057;-59
2022/03/13 07:28:10;;;;;;;5.55;2.00;;;17.10;57.80;;;;;;5034283;28;20370;-60
2022/03/13 07:30:36;;;;;;;7.22;1.98;;;17.10;57.50;;;;;;5030382;28;20591;-60
2022/03/13 07:33:01;;;;;;;6.05;2.00;;;17.10;57.60;;;;;;5029208;28;20552;-60
2022/03/13 07:35:27;;;;;;;6.20;2.00;;;17.10;57.80;;;;;;5017410;28;20083;-60
2022/03/13 07:37:53;;;;;;;4.82;1.90;;;17.10;57.80;;;;;;5016051;28;20030;-59
2022/03/13 07:40:19;;;;;;;6.00;2.00;;;17.10;57.90;;;;;;5034343;28;20057;-60
2022/03/13 07:42:44;;;;;;;6.03;1.70;;;17.10;57.70;;;;;;5027508;28;20391;-60
2022/03/13 07:45:10;;;;;;;6.07;2.22;;;17.10;57.90;;;;;;5028027;28;20371;-60
2022/03/13 07:47:36;;;;;;;4.95;1.63;;;17.10;57.70;;;;;;5019265;28;20045;-60
2022/03/13 07:50:02;;;;;;;5.38;1.85;;;17.10;57.70;;;;;;5025269;28;20044;-60
2022/03/13 07:52:27;;;;;;;7.32;2.13;;;17.10;57.50;;;;;;5028023;28;20055;-60
2022/03/13 07:54:53;;;;;;;6.25;2.00;;;17.00;57.50;;;;;;5029888;28;20087;-60
2022/03/13 07:57:19;;;;;;;5.95;2.05;;;17.00;57.40;;;;;;5027201;28;20067;-60
2022/03/13 07:59:47;;;;;;;6.07;2.08;;;17.00;57.50;;;;;;5022976;28;20036;-59
2022/03/13 08:02:13;;;;;;;7.32;2.13;;;17.00;57.40;;;;;;5035896;28;20033;-60
2022/03/13 08:04:39;;;;;;;5.18;1.70;;;17.00;57.60;;;;;;5052170;28;20041;-60
2022/03/13 08:07:05;;;;;;;4.38;1.60;;;17.00;57.50;;;;;;5033636;28;20041;-60
2022/03/13 08:09:30;;;;;;;4.82;1.70;;;17.00;57.60;;;;;;5031540;28;20129;-59
2022/03/13 08:11:56;;;;;;;5.07;1.73;;;17.00;57.60;;;;;;5019633;28;20025;-60
2022/03/13 08:14:22;;;;;;;4.38;1.73;;;17.00;57.60;;;;;;5015756;28;20055;-59
2022/03/13 08:16:50;;;;;;;5.70;1.73;;;17.00;57.50;;;;;;5016114;28;20030;-60
2022/03/13 08:19:16;;;;;;;6.40;2.38;;;17.00;57.50;;;;;;5030687;28;20059;-60
2022/03/13 08:21:42;;;;;;;5.32;2.00;;;17.00;57.50;;;;;;5034925;28;20060;-60
2022/03/13 08:24:07;;;;;;;5.10;1.83;;;17.00;57.50;;;;;;5035937;28;20052;-59
2022/03/13 08:26:39;;;;;;;6.07;1.75;;;17.00;57.60;;;;;;5030483;28;20037;-60
2022/03/13 08:29:10;;;;;;;5.40;1.80;;;17.00;57.50;;;;;;5029404;28;20021;-60
2022/03/13 08:31:35;;;;;;;4.47;1.73;;;17.00;57.60;;;;;;5017095;28;20230;-59
2022/03/13 08:34:06;;;;;;;5.53;1.95;;;16.90;57.60;;;;;;5019170;28;20029;-60
2022/03/13 08:36:39;;;;;;;6.50;1.60;;;16.90;57.50;;;;;;5025414;28;20033;-59
2022/03/13 08:39:05;;;;;;;5.30;2.05;;;17.00;57.60;;;;;;5027957;28;20455;-59
2022/03/13 08:41:31;;;;;;;6.55;2.15;;;17.00;58.70;;;;;;5011269;28;20050;-60
2022/03/13 08:43:57;;;;;;;6.28;1.63;;;16.90;57.60;;;;;;5009481;28;20049;-60
2022/03/13 08:46:23;;;;;;;4.70;1.75;;;16.90;57.50;;;;;;5012077;28;20034;-60
2022/03/13 08:48:49;;;;;;;10.00;1.83;;;16.90;57.70;;;;;;5011036;28;20652;-60
2022/03/13 08:51:15;;;;;;;6.72;1.90;;;16.90;57.50;;;;;;5023042;28;20034;-60
2022/03/13 08:53:41;;;;;;;5.57;1.83;;;17.00;57.60;;;;;;5028657;28;20610;-60
2022/03/13 08:56:07;;;;;;;9.48;2.03;;;17.00;57.70;;;;;;5028113;28;20017;-60
2022/03/13 08:58:33;;;;;;;5.95;1.70;;;17.00;57.70;;;;;;5027362;28;20549;-60
2022/03/13 09:01:00;;;;;;;13.15;2.00;;;17.00;57.60;;;;;;5024979;28;20071;-60
2022/03/13 09:03:28;;;;;;;9.32;1.85;;;17.00;57.70;;;;;;5034168;28;20044;-60
2022/03/13 09:05:55;;;;;;;7.97;1.90;;;17.10;57.60;;;;;;5039247;28;20667;-60
2022/03/13 09:08:21;;;;;;;6.65;2.10;;;17.10;57.60;;;;;;5034573;28;20124;-60
2022/03/13 09:10:46;;;;;;;6.35;1.85;;;17.10;57.60;;;;;;5030870;28;20116;-60
2022/03/13 09:13:13;;;;;;;7.28;1.90;;;17.10;57.60;;;;;;5018762;28;20116;-60
2022/03/13 09:15:39;;;;;;;7.35;2.10;;;17.10;57.60;;;;;;5023030;28;20082;-60
2022/03/13 09:18:05;;;;;;;7.28;2.00;;;17.10;57.50;;;;;;5037409;28;20487;-60
2022/03/13 09:20:31;;;;;;;8.55;2.00;;;17.10;57.50;;;;;;5031255;28;20025;-60
2022/03/13 09:23:00;;;;;;;6.22;1.83;;;17.10;57.50;;;;;;5029317;28;20033;-60
2022/03/13 09:25:25;;;;;;;5.70;1.90;;;17.10;57.50;;;;;;5023184;28;20054;-60
2022/03/13 09:27:52;;;;;;;7.45;2.13;;;17.10;57.60;;;;;;5026117;28;20041;-60
2022/03/13 09:30:18;;;;;;;10.82;1.90;;;17.10;57.60;;;;;;5034910;28;20033;-60
2022/03/13 09:32:43;;;;;;;8.05;1.90;;;17.20;57.60;;;;;;5018284;28;20087;-60
2022/03/13 09:35:10;;;;;;;9.82;2.20;;;17.20;57.60;;;;;;5037411;28;20080;-60
2022/03/13 09:37:35;;;;;;;9.60;2.00;;;17.20;57.60;;;;;;5030973;28;20037;-60
2022/03/13 09:40:01;;;;;;;7.55;2.30;;;17.20;57.50;;;;;;5026331;28;20399;-60
2022/03/13 09:42:27;;;;;;;10.75;1.95;;;17.20;57.60;;;;;;5033564;28;20061;-60
2022/03/13 09:44:54;;;;;;;8.45;2.22;;;17.20;58.00;;;;;;5035623;28;20060;-60
2022/03/13 09:47:20;;;;;;;12.60;2.38;;;17.30;58.00;;;;;;5036815;28;20037;-61
2022/03/13 09:49:45;;;;;;;8.40;2.13;;;17.30;58.20;;;;;;5041719;28;20029;-60
2022/03/13 09:52:11;;;;;;;9.50;2.10;;;17.30;57.90;;;;;;5030916;28;20021;-60
2022/03/13 09:54:37;;;;;;;12.88;2.22;;;17.40;58.40;;;;;;5031914;28;20099;-61
2022/03/13 09:57:04;;;;;;;12.32;2.38;;;17.40;58.70;;;;;;5026574;28;20087;-60
2022/03/13 09:59:30;;;;;;;10.57;2.15;;;17.40;58.60;;;;;;5031655;28;20398;-60
2022/03/13 10:01:55;;;;;;;9.73;2.03;;;17.40;58.50;;;;;;5029049;28;20056;-61
2022/03/13 10:04:21;;;;;;;7.70;2.00;;;17.50;58.50;;;;;;5029664;28;20494;-60
2022/03/13 10:07:07;;;;;;;7.78;1.95;;;17.50;58.40;;;;;;5018404;28;20136;-60
2022/03/13 10:09:34;;;;;;;8.27;2.10;;;17.50;58.40;;;;;;5024590;28;20037;-60
2022/03/13 10:12:09;;;;;;;12.05;2.55;;;17.50;58.20;;;;;;5036280;28;20033;-61
2022/03/13 10:14:35;;;;;;;;;;;17.50;58.20;;;;;;5037667;28;20026;-61
2022/03/13 10:17:01;;;;;;;10.10;2.05;;;17.50;58.30;;;;;;5029405;28;19909;-60
2022/03/13 10:19:27;;;;;;;7.55;1.85;;;17.50;58.40;;;;;;5028155;28;20087;-63
2022/03/13 10:22:07;;;;;;;9.05;1.98;;;17.50;58.20;;;;;;5021172;28;20044;-63
2022/03/13 10:24:43;;;;;;;9.77;2.33;;;17.50;58.30;;;;;;5021401;28;20160;-63
2022/03/13 10:27:12;;;;;;;9.50;3.60;;;17.50;58.30;;;;;;5032286;28;20037;-63
2022/03/13 10:29:38;;;;;;;10.75;3.10;;;17.50;58.30;;;;;;5027953;28;20140;-63
2022/03/13 10:32:05;;;;;;;8.55;2.70;;;17.60;58.60;;;;;;5031495;28;20025;-63
2022/03/13 10:34:32;;;;;;;12.40;3.70;;;17.60;58.30;;;;;;5028115;28;20032;-63
2022/03/13 10:36:58;;;;;;;11.02;3.13;;;17.60;58.50;;;;;;5023528;28;20588;-63
2022/03/13 10:39:23;;;;;;;13.35;3.28;;;17.60;58.50;;;;;;5023176;28;20101;-63
2022/03/13 10:41:58;;;;;;;11.20;3.30;;;17.60;58.40;;;;;;5020845;28;20623;-63
2022/03/13 10:44:25;;;;;;;14.05;3.70;;;17.60;58.50;;;;;;5015973;28;20031;-63
2022/03/13 10:46:55;;;;;;;9.98;3.40;;;17.60;58.80;;;;;;5043316;28;20030;-63
2022/03/13 10:49:41;;;;;;;11.40;3.60;;;17.60;58.80;;;;;;5016107;28;20033;-63
2022/03/13 10:52:23;;;;;;;9.40;3.15;;;17.70;58.80;;;;;;5026958;28;20482;-63
2022/03/13 10:54:50;;;;;;;11.05;3.38;;;17.70;58.80;;;;;;5022737;28;20489;-63
2022/03/13 10:57:16;;;;;;;10.90;3.08;;;17.70;58.90;;;;;;5034299;28;20029;-63
2022/03/13 10:59:42;;;;;;;15.43;3.38;;;17.70;59.00;;;;;;5018465;28;20053;-63
2022/03/13 11:02:17;;;;;;;11.15;3.33;;;17.70;59.10;;;;;;5044029;28;20029;-63
2022/03/13 11:04:57;;;;;;;10.20;3.08;;;17.70;58.80;;;;;;5012981;28;20446;-63
2022/03/13 11:07:26;;;;;;;10.82;3.10;;;17.70;58.70;;;;;;5016405;28;20038;-63
2022/03/13 11:09:52;;;;;;;9.98;2.97;;;17.80;58.60;;;;;;5027839;28;20018;-64
2022/03/13 11:12:21;;;;;;;9.90;2.90;;;17.80;58.60;;;;;;5033204;28;20124;-64
2022/03/13 11:14:52;;;;;;;11.48;3.00;;;17.80;58.70;;;;;;5030877;28;20025;-64
2022/03/13 11:17:19;;;;;;;11.98;3.25;;;17.70;58.70;;;;;;5015155;28;20026;-64
2022/03/13 11:19:48;;;;;;;11.00;3.13;;;17.70;59.00;;;;;;5061281;28;20064;-64
2022/03/13 11:22:16;;;;;;;10.95;2.75;;;17.80;59.00;;;;;;5032132;28;20232;-64
2022/03/13 11:24:42;;;;;;;12.38;2.95;;;17.70;59.00;;;;;;5035220;28;20034;-64
2022/03/13 11:27:08;;;;;;;11.60;3.03;;;17.70;59.00;;;;;;5035255;28;20229;-63
2022/03/13 11:29:44;;;;;;;10.93;2.92;;;17.70;59.20;;;;;;5041326;28;20021;-64
2022/03/13 11:32:47;;;;;;;11.38;2.80;;;17.80;59.20;;;;;;5025510;28;20026;-64
2022/03/13 11:35:18;;;;;;;10.02;2.78;;;17.80;58.80;;;;;;5041500;28;20030;-63
2022/03/13 11:37:44;;;;;;;9.75;2.70;;;17.90;58.80;;;;;;5017581;28;20026;-63
2022/03/13 11:40:12;;;;;;;10.30;2.92;;;17.90;58.80;;;;;;5020055;28;20077;-64
2022/03/13 11:42:51;;;;;;;10.98;3.00;;;18.00;58.80;;;;;;5026404;28;20026;-63
2022/03/13 11:45:28;;;;;;;9.40;2.78;;;17.90;58.90;;;;;;5014295;28;20540;-64
2022/03/13 11:47:55;;;;;;;12.05;2.60;;;17.90;59.00;;;;;;5019849;28;20490;-63
2022/03/13 11:50:25;;;;;;;7.70;2.72;;;17.90;59.10;;;;;;5020139;28;20514;-63
2022/03/13 11:53:02;;;;;;;9.93;2.80;;;17.90;58.90;;;;;;5024468;28;20429;-63
2022/03/13 11:55:28;;;;;;;58.25;17.38;;;17.90;58.90;;;;;;5041030;28;20065;-64
2022/03/13 11:58:00;;;;;;;71.82;21.38;;;17.90;59.00;;;;;;5024549;28;20072;-64
2022/03/13 12:00:28;;;;;;;63.15;18.48;;;17.90;59.10;;;;;;5026709;28;20108;-64
2022/03/13 12:03:06;;;;;;;58.80;16.33;;;17.90;59.20;;;;;;5017051;28;20029;-63
2022/03/13 12:05:31;;;;;;;41.25;13.70;;;17.80;59.30;;;;;;5024219;28;20026;-64
2022/03/13 12:08:08;;;;;;;41.40;13.38;;;17.80;59.40;;;;;;5025681;28;20107;-65
2022/03/13 12:10:47;;;;;;;42.95;12.68;;;17.80;59.50;;;;;;5023224;28;20138;-64
2022/03/13 12:13:15;;;;;;;32.63;11.90;;;17.80;59.50;;;;;;5023585;28;20021;-65
2022/03/13 12:15:42;;;;;;;39.40;12.05;;;17.90;59.30;;;;;;5023183;28;20033;-65
2022/03/13 12:18:21;;;;;;;34.13;12.30;;;18.00;59.30;;;;;;5054957;28;20109;-65
2022/03/13 12:20:49;;;;;;;36.95;11.20;;;18.10;59.00;;;;;;5031905;28;20025;-65
2022/03/13 12:23:29;;;;;;;26.75;11.13;;;18.10;59.10;;;;;;5026830;28;20037;-64
2022/03/13 12:26:18;;;;;;;26.80;11.23;;;18.20;59.20;;;;;;5012737;28;20036;-65
2022/03/13 12:28:44;;;;;;;28.23;10.10;;;18.20;59.70;;;;;;5024795;28;20041;-64
2022/03/13 12:31:11;;;;;;;30.05;10.40;;;18.20;59.50;;;;;;5019184;28;20487;-64
2022/03/13 12:33:37;;;;;;;28.55;10.00;;;18.20;59.40;;;;;;5024005;28;20026;-64
2022/03/13 12:36:03;;;;;;;29.05;10.00;;;18.20;59.60;;;;;;5021191;28;20032;-64
2022/03/13 12:38:30;;;;;;;27.27;9.73;;;18.30;59.50;;;;;;5025992;28;20021;-64
2022/03/13 12:40:58;;;;;;;32.40;12.00;;;18.40;59.60;;;;;;5019510;28;20053;-64
2022/03/13 12:43:44;;;;;;;35.22;14.52;;;18.30;59.70;;;;;;5025949;28;20616;-65
2022/03/13 12:46:10;;;;;;;34.80;12.68;;;18.40;60.10;;;;;;5024279;28;20566;-64